sensor_id;sensor_type;location;lat;lon;timestamp;pressure;altitude;pressure_sealevel;temperature;humidity
27144;BME280;14672;50.250;8.312;2023-04-01T00:00:55;97024.66;;;13.80;60.28
27144;BME280;14672;50.250;8.312;2023-04-01T00:03:22;97032.72;;;13.81;60.34
27144;BME280;14672;50.250;8.312;2023-04-01T00:05:49;97022.81;;;13.82;60.14
27144;BME280;14672;50.250;8.312;2023-04-01T00:08:16;97011.69;;;13.79;59.94
27144;BME280;14672;50.250;8.312;2023-04-01T00:10:42;97024.81;;;13.41;60.75
27144;BME280;14672;50.250;8.312;2023-04-01T00:13:08;97023.16;;;13.68;60.28
27144;BME280;14672;50.250;8.312;2023-04-01T00:15:35;97024.72;;;13.63;60.42
27144;BME280;14672;50.250;8.312;2023-04-01T00:18:02;97022.59;;;13.75;60.23
27144;BME280;14672;50.250;8.312;2023-04-01T00:20:28;97016.34;;;13.82;59.73
27144;BME280;14672;50.250;8.312;2023-04-01T00:22:54;97023.66;;;13.77;59.87
27144;BME280;14672;50.250;8.312;2023-04-01T00:25:21;97016.13;;;13.74;59.67
27144;BME280;14672;50.250;8.312;2023-04-01T00:27:47;97021.28;;;13.81;59.22
27144;BME280;14672;50.250;8.312;2023-04-01T00:30:13;97028.31;;;13.75;59.55
27144;BME280;14672;50.250;8.312;2023-04-01T00:32:39;97018.44;;;13.76;59.48
27144;BME280;14672;50.250;8.312;2023-04-01T00:35:05;97019.50;;;13.73;59.28
27144;BME280;14672;50.250;8.312;2023-04-01T00:37:35;97020.75;;;13.83;59.11
27144;BME280;14672;50.250;8.312;2023-04-01T00:40:04;97020.00;;;13.77;59.16
27144;BME280;14672;50.250;8.312;2023-04-01T00:42:31;97017.66;;;13.75;59.03
27144;BME280;14672;50.250;8.312;2023-04-01T00:44:57;97025.94;;;13.84;58.81
27144;BME280;14672;50.250;8.312;2023-04-01T00:47:24;97022.81;;;13.82;58.71
27144;BME280;14672;50.250;8.312;2023-04-01T00:49:52;97035.06;;;13.72;58.94
27144;BME280;14672;50.250;8.312;2023-04-01T00:52:23;97021.78;;;13.85;58.75
27144;BME280;14672;50.250;8.312;2023-04-01T00:54:56;97024.09;;;13.87;58.57
27144;BME280;14672;50.250;8.312;2023-04-01T00:57:31;97017.13;;;13.82;58.60
27144;BME280;14672;50.250;8.312;2023-04-01T00:59:58;97029.09;;;13.75;58.54
27144;BME280;14672;50.250;8.312;2023-04-01T01:02:25;97022.88;;;13.71;58.79
27144;BME280;14672;50.250;8.312;2023-04-01T01:04:51;97014.03;;;13.80;58.59
27144;BME280;14672;50.250;8.312;2023-04-01T01:08:22;97022.38;;;13.67;59.00
27144;BME280;14672;50.250;8.312;2023-04-01T01:10:51;97026.34;;;13.47;59.29
27144;BME280;14672;50.250;8.312;2023-04-01T01:13:44;97022.41;;;13.56;59.22
27144;BME280;14672;50.250;8.312;2023-04-01T01:16:27;97016.75;;;13.45;59.18
27144;BME280;14672;50.250;8.312;2023-04-01T01:19:47;97010.72;;;13.59;59.11
27144;BME280;14672;50.250;8.312;2023-04-01T01:25:11;97010.41;;;13.74;58.88
27144;BME280;14672;50.250;8.312;2023-04-01T01:27:43;97022.94;;;13.60;59.14
27144;BME280;14672;50.250;8.312;2023-04-01T01:30:43;97009.19;;;13.58;58.84
27144;BME280;14672;50.250;8.312;2023-04-01T01:33:54;97007.38;;;13.61;59.03
27144;BME280;14672;50.250;8.312;2023-04-01T01:36:23;97004.56;;;13.44;58.79
27144;BME280;14672;50.250;8.312;2023-04-01T01:38:53;96995.97;;;13.61;58.70
27144;BME280;14672;50.250;8.312;2023-04-01T01:41:23;96995.47;;;13.46;59.30
27144;BME280;14672;50.250;8.312;2023-04-01T01:43:53;97008.66;;;13.60;58.87
27144;BME280;14672;50.250;8.312;2023-04-01T01:46:23;96998.88;;;13.44;59.33
27144;BME280;14672;50.250;8.312;2023-04-01T01:48:51;97010.50;;;13.52;58.94
27144;BME280;14672;50.250;8.312;2023-04-01T01:51:20;96999.66;;;13.45;59.25
27144;BME280;14672;50.250;8.312;2023-04-01T01:53:47;96992.03;;;13.64;59.09
27144;BME280;14672;50.250;8.312;2023-04-01T01:56:13;97005.03;;;13.59;58.98
27144;BME280;14672;50.250;8.312;2023-04-01T01:58:49;96999.88;;;13.52;59.41
27144;BME280;14672;50.250;8.312;2023-04-01T02:01:20;96991.28;;;13.58;59.17
27144;BME280;14672;50.250;8.312;2023-04-01T02:03:51;96997.28;;;13.49;58.85
27144;BME280;14672;50.250;8.312;2023-04-01T02:06:21;96997.06;;;13.36;59.30
27144;BME280;14672;50.250;8.312;2023-04-01T02:08:56;96989.19;;;13.58;58.82
27144;BME280;14672;50.250;8.312;2023-04-01T02:11:49;96986.13;;;13.51;58.96
27144;BME280;14672;50.250;8.312;2023-04-01T02:14:27;96983.03;;;13.43;59.09
27144;BME280;14672;50.250;8.312;2023-04-01T02:17:19;96986.41;;;13.47;59.36
27144;BME280;14672;50.250;8.312;2023-04-01T02:20:19;96993.13;;;13.50;59.11
27144;BME280;14672;50.250;8.312;2023-04-01T02:22:51;96991.31;;;13.47;59.10
27144;BME280;14672;50.250;8.312;2023-04-01T02:25:29;96991.91;;;13.29;59.33
27144;BME280;14672;50.250;8.312;2023-04-01T02:27:58;96987.22;;;13.37;59.46
27144;BME280;14672;50.250;8.312;2023-04-01T02:30:27;96990.88;;;13.32;59.62
27144;BME280;14672;50.250;8.312;2023-04-01T02:32:56;96994.00;;;13.23;59.88
27144;BME280;14672;50.250;8.312;2023-04-01T02:35:23;96981.75;;;13.44;59.49
27144;BME280;14672;50.250;8.312;2023-04-01T02:37:50;96997.06;;;13.36;59.38
27144;BME280;14672;50.250;8.312;2023-04-01T02:40:17;96998.09;;;13.44;59.23
27144;BME280;14672;50.250;8.312;2023-04-01T02:42:43;96987.28;;;13.26;59.54
27144;BME280;14672;50.250;8.312;2023-04-01T02:45:10;96988.53;;;13.30;59.45
27144;BME280;14672;50.250;8.312;2023-04-01T02:47:36;96989.00;;;13.45;58.67
27144;BME280;14672;50.250;8.312;2023-04-01T02:50:03;97000.75;;;13.20;59.15
27144;BME280;14672;50.250;8.312;2023-04-01T02:52:29;96982.81;;;13.36;59.04
27144;BME280;14672;50.250;8.312;2023-04-01T02:54:56;96980.47;;;13.40;58.64
27144;BME280;14672;50.250;8.312;2023-04-01T02:57:23;96984.09;;;13.35;58.96
27144;BME280;14672;50.250;8.312;2023-04-01T02:59:48;96986.75;;;13.22;58.96
27144;BME280;14672;50.250;8.312;2023-04-01T03:02:15;96991.59;;;13.43;58.27
27144;BME280;14672;50.250;8.312;2023-04-01T03:04:41;96984.31;;;13.53;58.17
27144;BME280;14672;50.250;8.312;2023-04-01T03:07:08;96989.25;;;13.47;58.15
27144;BME280;14672;50.250;8.312;2023-04-01T03:09:37;96987.19;;;13.42;58.40
27144;BME280;14672;50.250;8.312;2023-04-01T03:12:03;96978.88;;;13.50;58.21
27144;BME280;14672;50.250;8.312;2023-04-01T03:14:29;96997.03;;;13.47;58.65
27144;BME280;14672;50.250;8.312;2023-04-01T03:16:55;96982.78;;;13.47;58.77
27144;BME280;14672;50.250;8.312;2023-04-01T03:19:21;96991.41;;;13.25;59.09
27144;BME280;14672;50.250;8.312;2023-04-01T03:21:46;96997.06;;;13.30;59.12
27144;BME280;14672;50.250;8.312;2023-04-01T03:24:12;96999.19;;;13.24;59.13
27144;BME280;14672;50.250;8.312;2023-04-01T03:26:38;96994.53;;;13.21;59.37
27144;BME280;14672;50.250;8.312;2023-04-01T03:29:04;97002.03;;;13.07;59.81
27144;BME280;14672;50.250;8.312;2023-04-01T03:31:30;96998.91;;;13.22;59.49
27144;BME280;14672;50.250;8.312;2023-04-01T03:33:56;96984.66;;;13.22;59.64
27144;BME280;14672;50.250;8.312;2023-04-01T03:36:22;96989.31;;;13.31;59.39
27144;BME280;14672;50.250;8.312;2023-04-01T03:38:48;96990.03;;;13.42;59.16
27144;BME280;14672;50.250;8.312;2023-04-01T03:41:15;96986.97;;;13.35;59.63
27144;BME280;14672;50.250;8.312;2023-04-01T03:43:42;96985.38;;;13.45;59.32
27144;BME280;14672;50.250;8.312;2023-04-01T03:46:08;96990.81;;;13.43;59.56
27144;BME280;14672;50.250;8.312;2023-04-01T03:48:34;96983.06;;;13.38;59.92
27144;BME280;14672;50.250;8.312;2023-04-01T03:51:00;96984.94;;;13.24;59.96
27144;BME280;14672;50.250;8.312;2023-04-01T03:53:25;96986.44;;;13.36;59.84
27144;BME280;14672;50.250;8.312;2023-04-01T03:55:52;96995.28;;;13.27;60.05
27144;BME280;14672;50.250;8.312;2023-04-01T03:58:19;96993.44;;;13.35;59.93
27144;BME280;14672;50.250;8.312;2023-04-01T04:00:45;96992.69;;;13.29;60.18
27144;BME280;14672;50.250;8.312;2023-04-01T04:03:11;96984.66;;;13.28;59.92
27144;BME280;14672;50.250;8.312;2023-04-01T04:05:37;96985.97;;;13.21;60.03
27144;BME280;14672;50.250;8.312;2023-04-01T04:08:03;96992.19;;;13.25;60.22
27144;BME280;14672;50.250;8.312;2023-04-01T04:10:29;96994.25;;;13.25;60.42
27144;BME280;14672;50.250;8.312;2023-04-01T04:12:56;96992.16;;;13.36;60.25
27144;BME280;14672;50.250;8.312;2023-04-01T04:15:22;97000.22;;;13.21;60.58
27144;BME280;14672;50.250;8.312;2023-04-01T04:17:48;96991.38;;;13.36;60.13
27144;BME280;14672;50.250;8.312;2023-04-01T04:20:14;96984.66;;;13.22;60.58
27144;BME280;14672;50.250;8.312;2023-04-01T04:22:40;96982.59;;;13.23;60.58
27144;BME280;14672;50.250;8.312;2023-04-01T04:25:07;96989.56;;;13.27;60.78
27144;BME280;14672;50.250;8.312;2023-04-01T04:27:34;96992.69;;;13.29;60.83
27144;BME280;14672;50.250;8.312;2023-04-01T04:30:00;96998.13;;;13.33;60.16
27144;BME280;14672;50.250;8.312;2023-04-01T04:32:26;96986.25;;;13.18;60.57
27144;BME280;14672;50.250;8.312;2023-04-01T04:34:52;96985.19;;;12.98;61.11
27144;BME280;14672;50.250;8.312;2023-04-01T04:37:18;96993.50;;;12.96;61.10
27144;BME280;14672;50.250;8.312;2023-04-01T04:39:43;96989.84;;;13.07;61.19
27144;BME280;14672;50.250;8.312;2023-04-01T04:42:09;96988.00;;;13.26;60.72
27144;BME280;14672;50.250;8.312;2023-04-01T04:44:35;96991.13;;;13.23;61.02
27144;BME280;14672;50.250;8.312;2023-04-01T04:47:01;96989.88;;;13.12;61.29
27144;BME280;14672;50.250;8.312;2023-04-01T04:49:27;96989.06;;;13.29;61.32
27144;BME280;14672;50.250;8.312;2023-04-01T04:51:53;96994.00;;;13.23;61.49
27144;BME280;14672;50.250;8.312;2023-04-01T04:54:18;96995.78;;;13.31;61.24
27144;BME280;14672;50.250;8.312;2023-04-01T04:56:44;96999.47;;;13.15;61.83
27144;BME280;14672;50.250;8.312;2023-04-01T04:59:10;97014.50;;;13.10;61.76
27144;BME280;14672;50.250;8.312;2023-04-01T05:01:36;96999.72;;;12.95;62.89
27144;BME280;14672;50.250;8.312;2023-04-01T05:04:01;96996.88;;;13.11;63.15
27144;BME280;14672;50.250;8.312;2023-04-01T05:06:27;96994.03;;;13.11;62.35
27144;BME280;14672;50.250;8.312;2023-04-01T05:08:55;97002.56;;;13.11;62.66
27144;BME280;14672;50.250;8.312;2023-04-01T05:11:22;97003.09;;;12.93;63.00
27144;BME280;14672;50.250;8.312;2023-04-01T05:13:48;97011.91;;;12.95;63.10
27144;BME280;14672;50.250;8.312;2023-04-01T05:16:19;97000.50;;;13.01;63.67
27144;BME280;14672;50.250;8.312;2023-04-01T05:18:46;97006.72;;;12.83;63.57
27144;BME280;14672;50.250;8.312;2023-04-01T05:21:14;97011.38;;;12.91;63.88
27144;BME280;14672;50.250;8.312;2023-04-01T05:23:40;97005.69;;;12.97;63.75
27144;BME280;14672;50.250;8.312;2023-04-01T05:26:09;97001.28;;;12.90;64.26
27144;BME280;14672;50.250;8.312;2023-04-01T05:28:37;96996.38;;;12.85;63.99
27144;BME280;14672;50.250;8.312;2023-04-01T05:31:05;96994.78;;;12.95;64.16
27144;BME280;14672;50.250;8.312;2023-04-01T05:33:31;96992.72;;;12.96;64.21
27144;BME280;14672;50.250;8.312;2023-04-01T05:36:09;96991.44;;;12.91;64.10
27144;BME280;14672;50.250;8.312;2023-04-01T05:38:36;96998.69;;;12.92;64.00
27144;BME280;14672;50.250;8.312;2023-04-01T05:41:03;96983.13;;;13.04;63.56
27144;BME280;14672;50.250;8.312;2023-04-01T05:43:29;96996.09;;;12.94;63.75
27144;BME280;14672;50.250;8.312;2023-04-01T05:45:56;96998.47;;;12.74;64.25
27144;BME280;14672;50.250;8.312;2023-04-01T05:48:22;96989.38;;;12.86;64.07
27144;BME280;14672;50.250;8.312;2023-04-01T05:50:48;96995.59;;;12.79;64.24
27144;BME280;14672;50.250;8.312;2023-04-01T05:53:14;96995.56;;;12.90;63.71
27144;BME280;14672;50.250;8.312;2023-04-01T05:55:40;96999.47;;;12.93;63.25
27144;BME280;14672;50.250;8.312;2023-04-01T05:58:05;96988.06;;;12.93;62.97
27144;BME280;14672;50.250;8.312;2023-04-01T06:00:31;96994.53;;;12.99;63.15
27144;BME280;14672;50.250;8.312;2023-04-01T06:03:00;96993.50;;;12.96;63.50
27144;BME280;14672;50.250;8.312;2023-04-01T06:05:38;96992.69;;;13.07;63.39
27144;BME280;14672;50.250;8.312;2023-04-01T06:08:15;96997.66;;;12.95;63.65
27144;BME280;14672;50.250;8.312;2023-04-01T06:17:07;96997.41;;;12.93;64.45
27144;BME280;14672;50.250;8.312;2023-04-01T06:38:27;97009.31;;;12.86;64.75
27144;BME280;14672;50.250;8.312;2023-04-01T06:46:47;97014.00;;;12.73;65.98
27144;BME280;14672;50.250;8.312;2023-04-01T06:49:46;97012.19;;;12.75;66.12
27144;BME280;14672;50.250;8.312;2023-04-01T06:52:42;97009.09;;;12.73;66.26
27144;BME280;14672;50.250;8.312;2023-04-01T06:55:38;97012.97;;;12.64;66.72
27144;BME280;14672;50.250;8.312;2023-04-01T06:58:21;97011.13;;;12.78;66.54
27144;BME280;14672;50.250;8.312;2023-04-01T07:00:53;97013.47;;;12.74;66.68
27144;BME280;14672;50.250;8.312;2023-04-01T07:03:51;97007.50;;;12.89;66.90
27144;BME280;14672;50.250;8.312;2023-04-01T07:09:10;97019.94;;;12.80;67.50
27144;BME280;14672;50.250;8.312;2023-04-01T07:11:38;97006.47;;;12.75;67.81
27144;BME280;14672;50.250;8.312;2023-04-01T07:14:32;97009.59;;;12.88;67.72
27144;BME280;14672;50.250;8.312;2023-04-01T07:17:12;97007.50;;;12.83;68.26
27144;BME280;14672;50.250;8.312;2023-04-01T07:19:51;97010.34;;;12.83;67.64
27144;BME280;14672;50.250;8.312;2023-04-01T07:22:40;97012.16;;;13.03;67.05
27144;BME280;14672;50.250;8.312;2023-04-01T07:25:19;97016.28;;;13.07;67.43
27144;BME280;14672;50.250;8.312;2023-04-01T07:27:46;97012.94;;;13.14;66.74
27144;BME280;14672;50.250;8.312;2023-04-01T07:30:22;97005.41;;;13.23;66.70
27144;BME280;14672;50.250;8.312;2023-04-01T07:33:08;97011.63;;;13.15;66.44
27144;BME280;14672;50.250;8.312;2023-04-01T07:41:23;97018.09;;;13.33;66.05
27144;BME280;14672;50.250;8.312;2023-04-01T07:55:46;97036.41;;;13.54;66.17
27144;BME280;14672;50.250;8.312;2023-04-01T08:01:10;97028.63;;;13.60;65.88
27144;BME280;14672;50.250;8.312;2023-04-01T08:15:34;97045.19;;;13.67;65.06
27144;BME280;14672;50.250;8.312;2023-04-01T08:18:04;97050.34;;;13.85;65.80
27144;BME280;14672;50.250;8.312;2023-04-01T08:21:28;97058.63;;;13.89;65.68
27144;BME280;14672;50.250;8.312;2023-04-01T08:23:58;97053.66;;;13.95;65.45
27144;BME280;14672;50.250;8.312;2023-04-01T08:26:42;97056.00;;;13.96;66.09
27144;BME280;14672;50.250;8.312;2023-04-01T08:29:19;97047.16;;;13.94;64.65
27144;BME280;14672;50.250;8.312;2023-04-01T08:32:00;97058.41;;;13.81;65.71
27144;BME280;14672;50.250;8.312;2023-04-01T08:34:40;97062.50;;;13.86;65.37
27144;BME280;14672;50.250;8.312;2023-04-01T08:37:19;97065.66;;;13.77;65.78
27144;BME280;14672;50.250;8.312;2023-04-01T08:39:58;97055.22;;;13.96;65.02
27144;BME280;14672;50.250;8.312;2023-04-01T08:43:11;97056.00;;;13.91;65.71
27144;BME280;14672;50.250;8.312;2023-04-01T08:46:46;97057.06;;;13.82;65.46
27144;BME280;14672;50.250;8.312;2023-04-01T08:52:36;97067.47;;;13.85;65.76
27144;BME280;14672;50.250;8.312;2023-04-01T08:58:11;97059.06;;;14.04;65.37
27144;BME280;14672;50.250;8.312;2023-04-01T09:01:21;97064.09;;;13.81;66.37
27144;BME280;14672;50.250;8.312;2023-04-01T09:25:15;97073.19;;;14.37;65.60
27144;BME280;14672;50.250;8.312;2023-04-01T09:28:34;97071.72;;;14.20;65.92
27144;BME280;14672;50.250;8.312;2023-04-01T09:46:19;97089.50;;;14.48;64.50
27144;BME280;14672;50.250;8.312;2023-04-01T09:51:45;97098.28;;;14.55;64.02
27144;BME280;14672;50.250;8.312;2023-04-01T09:55:02;97091.81;;;14.49;63.46
27144;BME280;14672;50.250;8.312;2023-04-01T10:00:20;97092.28;;;14.59;64.24
27144;BME280;14672;50.250;8.312;2023-04-01T10:06:20;97090.72;;;14.58;64.47
27144;BME280;14672;50.250;8.312;2023-04-01T10:21:25;97106.84;;;14.55;63.86
27144;BME280;14672;50.250;8.312;2023-04-01T10:24:38;97115.16;;;14.59;64.12
27144;BME280;14672;50.250;8.312;2023-04-01T10:30:19;97109.16;;;14.57;64.79
27144;BME280;14672;50.250;8.312;2023-04-01T10:36:38;97113.00;;;14.65;64.79
27144;BME280;14672;50.250;8.312;2023-04-01T10:46:05;97118.56;;;14.52;64.15
27144;BME280;14672;50.250;8.312;2023-04-01T11:01:03;97120.59;;;14.57;63.52
27144;BME280;14672;50.250;8.312;2023-04-01T11:42:55;97140.13;;;14.94;64.25
27144;BME280;14672;50.250;8.312;2023-04-01T11:45:46;97145.22;;;15.07;64.54
27144;BME280;14672;50.250;8.312;2023-04-01T11:49:24;97141.78;;;15.14;63.91
27144;BME280;14672;50.250;8.312;2023-04-01T12:17:39;97158.00;;;15.35;62.21
27144;BME280;14672;50.250;8.312;2023-04-01T12:31:49;97171.63;;;15.24;62.73
27144;BME280;14672;50.250;8.312;2023-04-01T12:34:56;97171.91;;;15.20;62.38
27144;BME280;14672;50.250;8.312;2023-04-01T12:43:33;97178.88;;;15.25;63.46
27144;BME280;14672;50.250;8.312;2023-04-01T12:46:49;97175.50;;;15.26;63.86
27144;BME280;14672;50.250;8.312;2023-04-01T12:52:52;97169.09;;;15.50;63.12
27144;BME280;14672;50.250;8.312;2023-04-01T12:58:53;97168.50;;;15.57;64.02
27144;BME280;14672;50.250;8.312;2023-04-01T13:16:14;97176.66;;;16.02;61.56
27144;BME280;14672;50.250;8.312;2023-04-01T13:19:07;97173.66;;;15.88;61.18
27144;BME280;14672;50.250;8.312;2023-04-01T13:22:06;97170.28;;;15.90;60.42
27144;BME280;14672;50.250;8.312;2023-04-01T13:27:42;97177.69;;;15.80;61.03
27144;BME280;14672;50.250;8.312;2023-04-01T13:36:16;97205.41;;;15.61;61.50
27144;BME280;14672;50.250;8.312;2023-04-01T13:53:26;97208.50;;;16.41;60.43
27144;BME280;14672;50.250;8.312;2023-04-01T13:56:16;97208.75;;;16.43;60.51
27144;BME280;14672;50.250;8.312;2023-04-01T14:04:48;97216.16;;;16.33;60.10
27144;BME280;14672;50.250;8.312;2023-04-01T14:28:18;97229.22;;;16.28;61.18
27144;BME280;14672;50.250;8.312;2023-04-01T14:48:06;97230.06;;;15.99;62.30
27144;BME280;14672;50.250;8.312;2023-04-01T14:50:47;97240.16;;;16.06;63.40
27144;BME280;14672;50.250;8.312;2023-04-01T14:55:57;97234.13;;;16.09;62.40
27144;BME280;14672;50.250;8.312;2023-04-01T14:58:47;97236.47;;;16.11;63.01
27144;BME280;14672;50.250;8.312;2023-04-01T15:07:15;97238.84;;;16.07;63.17
27144;BME280;14672;50.250;8.312;2023-04-01T15:42:04;97287.53;;;16.07;61.71
27144;BME280;14672;50.250;8.312;2023-04-01T15:45:18;97292.28;;;16.28;61.43
27144;BME280;14672;50.250;8.312;2023-04-01T15:50:51;97287.44;;;16.42;61.27
27144;BME280;14672;50.250;8.312;2023-04-01T15:53:57;97285.66;;;16.39;60.71
27144;BME280;14672;50.250;8.312;2023-04-01T16:05:04;97276.81;;;16.85;58.73
27144;BME280;14672;50.250;8.312;2023-04-01T16:27:50;97314.47;;;16.76;56.59
27144;BME280;14672;50.250;8.312;2023-04-01T16:30:40;97310.41;;;16.66;57.37
27144;BME280;14672;50.250;8.312;2023-04-01T16:39:19;97322.50;;;16.54;60.08
27144;BME280;14672;50.250;8.312;2023-04-01T16:45:06;97336.00;;;16.34;61.76
27144;BME280;14672;50.250;8.312;2023-04-01T16:48:06;97344.34;;;16.32;62.08
27144;BME280;14672;50.250;8.312;2023-04-01T16:53:17;97361.44;;;16.14;63.05
27144;BME280;14672;50.250;8.312;2023-04-01T17:01:26;97370.94;;;15.97;64.58
27144;BME280;14672;50.250;8.312;2023-04-01T17:04:10;97380.13;;;15.85;65.98
27144;BME280;14672;50.250;8.312;2023-04-01T17:07:00;97379.31;;;15.95;65.68
27144;BME280;14672;50.250;8.312;2023-04-01T17:09:47;97383.25;;;15.87;65.71
27144;BME280;14672;50.250;8.312;2023-04-01T17:21:25;97392.22;;;15.72;65.22
27144;BME280;14672;50.250;8.312;2023-04-01T17:37:03;97420.94;;;15.44;67.56
27144;BME280;14672;50.250;8.312;2023-04-01T17:48:24;97436.34;;;15.30;67.44
27144;BME280;14672;50.250;8.312;2023-04-01T17:51:33;97445.72;;;15.31;66.09
27144;BME280;14672;50.250;8.312;2023-04-01T18:02:48;97443.63;;;15.26;64.13
27144;BME280;14672;50.250;8.312;2023-04-01T18:06:04;97454.56;;;15.22;63.53
27144;BME280;14672;50.250;8.312;2023-04-01T18:09:31;97461.34;;;15.19;63.86
27144;BME280;14672;50.250;8.312;2023-04-01T18:13:10;97460.09;;;15.09;63.52
27144;BME280;14672;50.250;8.312;2023-04-01T18:18:31;97476.72;;;15.10;63.32
27144;BME280;14672;50.250;8.312;2023-04-01T18:21:25;97463.22;;;14.99;64.00
27144;BME280;14672;50.250;8.312;2023-04-01T18:24:35;97481.69;;;14.98;63.82
27144;BME280;14672;50.250;8.312;2023-04-01T18:27:17;97487.13;;;15.02;63.59
27144;BME280;14672;50.250;8.312;2023-04-01T18:33:31;97497.78;;;15.01;63.73
27144;BME280;14672;50.250;8.312;2023-04-01T18:36:26;97507.16;;;15.02;63.24
27144;BME280;14672;50.250;8.312;2023-04-01T18:39:15;97507.94;;;14.75;63.91
27144;BME280;14672;50.250;8.312;2023-04-01T18:44:57;97524.84;;;14.84;65.40
27144;BME280;14672;50.250;8.312;2023-04-01T18:48:14;97534.72;;;14.83;66.13
27144;BME280;14672;50.250;8.312;2023-04-01T18:51:03;97540.72;;;14.85;66.64
27144;BME280;14672;50.250;8.312;2023-04-01T18:53:48;97540.94;;;14.81;66.83
27144;BME280;14672;50.250;8.312;2023-04-01T18:56:30;97551.63;;;14.81;66.63
27144;BME280;14672;50.250;8.312;2023-04-01T18:59:32;97550.84;;;14.80;66.50
27144;BME280;14672;50.250;8.312;2023-04-01T19:02:33;97558.91;;;14.76;67.11
27144;BME280;14672;50.250;8.312;2023-04-01T19:05:24;97563.31;;;14.77;66.48
27144;BME280;14672;50.250;8.312;2023-04-01T19:07:54;97560.97;;;14.70;66.79
27144;BME280;14672;50.250;8.312;2023-04-01T19:10:48;97565.38;;;14.71;66.74
27144;BME280;14672;50.250;8.312;2023-04-01T19:22:50;97587.97;;;14.69;67.20
27144;BME280;14672;50.250;8.312;2023-04-01T19:33:45;97598.38;;;14.61;68.13
27144;BME280;14672;50.250;8.312;2023-04-01T19:39:41;97611.38;;;14.68;68.75
27144;BME280;14672;50.250;8.312;2023-04-01T19:42:36;97610.09;;;14.69;68.84
27144;BME280;14672;50.250;8.312;2023-04-01T19:45:47;97613.19;;;14.65;68.18
27144;BME280;14672;50.250;8.312;2023-04-01T20:00:24;97629.00;;;14.44;68.87
27144;BME280;14672;50.250;8.312;2023-04-01T20:03:03;97632.88;;;14.46;68.81
27144;BME280;14672;50.250;8.312;2023-04-01T20:08:40;97635.25;;;14.48;67.09
27144;BME280;14672;50.250;8.312;2023-04-01T20:11:44;97643.78;;;14.37;67.30
27144;BME280;14672;50.250;8.312;2023-04-01T20:20:00;97660.84;;;14.26;67.74
27144;BME280;14672;50.250;8.312;2023-04-01T20:25:30;97667.59;;;14.23;68.09
27144;BME280;14672;50.250;8.312;2023-04-01T20:28:09;97676.69;;;14.21;67.90
27144;BME280;14672;50.250;8.312;2023-04-01T20:46:20;97695.81;;;14.09;68.28
27144;BME280;14672;50.250;8.312;2023-04-01T20:49:15;97699.16;;;14.02;68.99
27144;BME280;14672;50.250;8.312;2023-04-01T20:51:59;97696.31;;;14.02;68.88
27144;BME280;14672;50.250;8.312;2023-04-01T20:57:14;97704.38;;;14.04;69.03
27144;BME280;14672;50.250;8.312;2023-04-01T21:09:01;97716.50;;;13.93;70.37
27144;BME280;14672;50.250;8.312;2023-04-01T21:43:16;97752.78;;;13.87;70.87
27144;BME280;14672;50.250;8.312;2023-04-01T21:46:23;97754.06;;;13.86;71.03
27144;BME280;14672;50.250;8.312;2023-04-01T22:07:15;97788.25;;;13.75;71.07
27144;BME280;14672;50.250;8.312;2023-04-01T22:15:52;97785.94;;;13.79;70.47
27144;BME280;14672;50.250;8.312;2023-04-01T22:18:32;97790.84;;;13.73;71.10
27144;BME280;14672;50.250;8.312;2023-04-01T22:21:23;97796.56;;;13.73;70.73
27144;BME280;14672;50.250;8.312;2023-04-01T22:32:48;97809.19;;;13.67;70.97
27144;BME280;14672;50.250;8.312;2023-04-01T22:43:43;97821.13;;;13.65;71.00
27144;BME280;14672;50.250;8.312;2023-04-01T22:49:26;97830.13;;;13.58;71.20
27144;BME280;14672;50.250;8.312;2023-04-01T22:52:03;97824.66;;;13.54;70.84
27144;BME280;14672;50.250;8.312;2023-04-01T22:54:45;97830.09;;;13.52;71.04
27144;BME280;14672;50.250;8.312;2023-04-01T22:57:35;97839.47;;;13.58;71.60
27144;BME280;14672;50.250;8.312;2023-04-01T23:06:03;97842.28;;;13.53;71.33
27144;BME280;14672;50.250;8.312;2023-04-01T23:09:23;97844.91;;;13.56;71.36
27144;BME280;14672;50.250;8.312;2023-04-01T23:11:58;97841.78;;;13.54;70.48
27144;BME280;14672;50.250;8.312;2023-04-01T23:15:02;97843.13;;;13.59;70.95
27144;BME280;14672;50.250;8.312;2023-04-01T23:23:58;97852.84;;;13.47;71.25
27144;BME280;14672;50.250;8.312;2023-04-01T23:26:56;97851.78;;;13.44;71.02
27144;BME280;14672;50.250;8.312;2023-04-01T23:29:26;97858.78;;;13.43;71.02
27144;BME280;14672;50.250;8.312;2023-04-01T23:32:03;97856.41;;;13.42;71.23
27144;BME280;14672;50.250;8.312;2023-04-01T23:34:34;97864.97;;;13.42;70.86
27144;BME280;14672;50.250;8.312;2023-04-01T23:37:09;97870.69;;;13.42;71.54
27144;BME280;14672;50.250;8.312;2023-04-01T23:39:43;97873.34;;;13.45;70.99
27144;BME280;14672;50.250;8.312;2023-04-01T23:42:33;97878.47;;;13.41;71.28
27144;BME280;14672;50.250;8.312;2023-04-01T23:45:14;97878.97;;;13.40;71.55
27144;BME280;14672;50.250;8.312;2023-04-01T23:47:43;97881.03;;;13.39;71.19
27144;BME280;14672;50.250;8.312;2023-04-01T23:50:21;97875.34;;;13.39;71.22
27144;BME280;14672;50.250;8.312;2023-04-01T23:53:28;97890.66;;;13.42;71.81
27144;BME280;14672;50.250;8.312;2023-04-01T23:55:52;97887.09;;;13.47;70.49
27144;BME280;14672;50.250;8.312;2023-04-01T23:58:42;97890.47;;;13.45;70.72
